KMER/MER METAR and TAF weather

Enter ICAO airport designator
Station Type Date Time Source
KMER METAR 2019/02/17 15:45 UTC NOAA

KMER 171545Z 00000KT 3SM -RA BR BKN017 OVC022 04/04 A3006


Station Type Date Time Source
KMER Decoded METAR 2019/02/17 15:45 UTC NOAA

Merced / Castle Air Force Base, CA, United States (KMER) 37-22N 120-34W 60M
Feb 17, 2019 - 10:45 AM EST / 2019.02.17 1545 UTC
Wind: Calm:0
Visibility: 3 mile(s):0
Sky conditions: overcast
Weather: light rain; mist
Temperature: 39 F (4 C)
Dew Point: 39 F (4 C)
Relative Humidity: 100%
Pressure (altimeter): 30.06 in. Hg (1017 hPa)
ob: KMER 171545Z 00000KT 3SM -RA BR BKN017 OVC022 04/04 A3006
cycle: 16

Station Type Date Time Source
KMER TAF 2019/02/17 12:50 UTC NOAA

TAF KMER 171141Z 1712/1812 12005KT P6SM BKN120
FM171500 13010KT P6SM -SHRA BKN030
FM172100 31007KT P6SM VCSH BKN035
FM180200 32003KT P6SM SCT040


Example: see airport list